Home > Products > Valid Products > TAF

000
FTUS44 KMOB 030539
TAFPNS
TAF
KPNS 030539Z 0306/0406 28006KT P6SM FEW070 BKN250
     FM031800 18007KT P6SM VCSH SCT050 BKN150=



000
FTUS44 KMOB 030539
TAFMOB
TAF
KMOB 030539Z 0306/0406 23004KT P6SM FEW060 BKN250
      TEMPO 0309/0313 5SM BR
     FM031800 18007KT P6SM VCSH SCT050 BKN150=



000
FTUS44 KMOB 030539
TAFPNS
TAF
KPNS 030539Z 0306/0406 28006KT P6SM FEW070 BKN250
     FM031800 18007KT P6SM VCSH SCT050 BKN150=



000
FTUS44 KMOB 030539
TAFMOB
TAF
KMOB 030539Z 0306/0406 23004KT P6SM FEW060 BKN250
      TEMPO 0309/0313 5SM BR
     FM031800 18007KT P6SM VCSH SCT050 BKN150=



000
FTUS44 KMOB 022320
TAFPNS
TAF
KPNS 022320Z 0300/0324 23007KT P6SM SCT150 BKN250
     FM031800 16006KT P6SM VCSH SCT050 BKN150=



000
FTUS44 KMOB 022320
TAFPNS
TAF
KPNS 022320Z 0300/0324 23007KT P6SM SCT150 BKN250
     FM031800 16006KT P6SM VCSH SCT050 BKN150=



000
FTUS44 KMOB 022320
TAFMOB
TAF
KMOB 022320Z 0300/0324 24004KT P6SM FEW150 BKN250
      TEMPO 0309/0313 5SM BR
     FM031800 16006KT P6SM VCSH SCT050 BKN150=



000
FTUS44 KMOB 022320
TAFMOB
TAF
KMOB 022320Z 0300/0324 24004KT P6SM FEW150 BKN250
      TEMPO 0309/0313 5SM BR
     FM031800 16006KT P6SM VCSH SCT050 BKN150=



000
FTUS44 KMOB 022320
TAFPNS
TAF
KPNS 022320Z 0300/0324 23007KT P6SM SCT150 BKN250
     FM031800 16006KT P6SM VCSH SCT050 BKN150=



000
FTUS44 KMOB 022320
TAFPNS
TAF
KPNS 022320Z 0300/0324 23007KT P6SM SCT150 BKN250
     FM031800 16006KT P6SM VCSH SCT050 BKN150=



000
FTUS44 KMOB 021816 RRA
TAFPNS
TAF
KPNS 021816Z 0218/0318 VRB04KT P6SM SCT050 BKN250
     FM030600 VRB02KT P6SM OVC250
     FM031500 20006KT P6SM VCSH SCT050 BKN250=



000
FTUS44 KMOB 021816 RRA
TAFMOB
TAF
KMOB 021816Z 0218/0318 18007KT P6SM SCT050 BKN150 BKN250
     FM030600 VRB02KT P6SM OVC250
     FM031500 VRB04KT P6SM VCSH SCT050 BKN150=



000
FTUS44 KMOB 021816 RRA
TAFPNS
TAF
KPNS 021816Z 0218/0318 VRB04KT P6SM SCT050 BKN250
     FM030600 VRB02KT P6SM OVC250
     FM031500 20006KT P6SM VCSH SCT050 BKN250=



000
FTUS44 KMOB 021816 RRA
TAFMOB
TAF
KMOB 021816Z 0218/0318 18007KT P6SM SCT050 BKN150 BKN250
     FM030600 VRB02KT P6SM OVC250
     FM031500 VRB04KT P6SM VCSH SCT050 BKN150=



000
FTUS44 KMOB 021816 RRA
TAFPNS
TAF
KPNS 021816Z 0218/0318 VRB04KT P6SM SCT050 BKN250
     FM030600 VRB02KT P6SM OVC250
     FM031500 20006KT P6SM VCSH SCT050 BKN250=



000
FTUS44 KMOB 021816 RRA
TAFPNS
TAF
KPNS 021816Z 0218/0318 VRB04KT P6SM SCT050 BKN250
     FM030600 VRB02KT P6SM OVC250
     FM031500 20006KT P6SM VCSH SCT050 BKN250=



000
FTUS44 KMOB 021816 RRA
TAFMOB
TAF
KMOB 021816Z 0218/0318 18007KT P6SM SCT050 BKN150 BKN250
     FM030600 VRB02KT P6SM OVC250
     FM031500 VRB04KT P6SM VCSH SCT050 BKN150=



000
FTUS44 KMOB 021816 RRA
TAFMOB
TAF
KMOB 021816Z 0218/0318 18007KT P6SM SCT050 BKN150 BKN250
     FM030600 VRB02KT P6SM OVC250
     FM031500 VRB04KT P6SM VCSH SCT050 BKN150=



000
FTUS44 KMOB 021130
TAFPNS
TAF
KPNS 021130Z 0212/0312 00000KT P6SM SKC
     FM021800 18006KT P6SM SCT050 SCT250
     FM030600 VRB02KT P6SM OVC250=



000
FTUS44 KMOB 021130
TAFPNS
TAF
KPNS 021130Z 0212/0312 00000KT P6SM SKC
     FM021800 18006KT P6SM SCT050 SCT250
     FM030600 VRB02KT P6SM OVC250=



000
FTUS44 KMOB 021130
TAFMOB
TAF
KMOB 021130Z 0212/0312 00000KT P6SM SCT060
     FM021800 20006KT P6SM SCT050 SCT250
     FM030600 VRB02KT P6SM OVC250=



000
FTUS44 KMOB 021130
TAFMOB
TAF
KMOB 021130Z 0212/0312 00000KT P6SM SCT060
     FM021800 20006KT P6SM SCT050 SCT250
     FM030600 VRB02KT P6SM OVC250=



000
FTUS44 KMOB 021130
TAFMOB
TAF
KMOB 021130Z 0212/0312 00000KT P6SM SCT060
     FM021800 20006KT P6SM SCT050 SCT250
     FM030600 VRB02KT P6SM OVC250=



000
FTUS44 KMOB 021130
TAFPNS
TAF
KPNS 021130Z 0212/0312 00000KT P6SM SKC
     FM021800 18006KT P6SM SCT050 SCT250
     FM030600 VRB02KT P6SM OVC250=



000
FTUS44 KMOB 021130
TAFMOB
TAF
KMOB 021130Z 0212/0312 00000KT P6SM SCT060
     FM021800 20006KT P6SM SCT050 SCT250
     FM030600 VRB02KT P6SM OVC250=



000
FTUS44 KMOB 021130
TAFPNS
TAF
KPNS 021130Z 0212/0312 00000KT P6SM SKC
     FM021800 18006KT P6SM SCT050 SCT250
     FM030600 VRB02KT P6SM OVC250=



000
FTUS44 KMOB 020528
TAFMOB
TAF
KMOB 020528Z 0206/0306 25003KT P6SM FEW200
     FM021800 20006KT P6SM SCT050 SCT250=



000
FTUS44 KMOB 020528
TAFPNS
TAF
KPNS 020528Z 0206/0306 29006KT P6SM FEW200
     FM021800 18006KT P6SM SCT050 SCT250=



000
FTUS44 KMOB 020528
TAFPNS
TAF
KPNS 020528Z 0206/0306 29006KT P6SM FEW200
     FM021800 18006KT P6SM SCT050 SCT250=



000
FTUS44 KMOB 020528
TAFMOB
TAF
KMOB 020528Z 0206/0306 25003KT P6SM FEW200
     FM021800 20006KT P6SM SCT050 SCT250=



000
FTUS44 KMOB 020528
TAFPNS
TAF
KPNS 020528Z 0206/0306 29006KT P6SM FEW200
     FM021800 18006KT P6SM SCT050 SCT250=



000
FTUS44 KMOB 020528
TAFMOB
TAF
KMOB 020528Z 0206/0306 25003KT P6SM FEW200
     FM021800 20006KT P6SM SCT050 SCT250=



000
FTUS44 KMOB 020528
TAFPNS
TAF
KPNS 020528Z 0206/0306 29006KT P6SM FEW200
     FM021800 18006KT P6SM SCT050 SCT250=



000
FTUS44 KMOB 020528
TAFMOB
TAF
KMOB 020528Z 0206/0306 25003KT P6SM FEW200
     FM021800 20006KT P6SM SCT050 SCT250=



000
FTUS44 KMOB 012320
TAFMOB
TAF
KMOB 012320Z 0200/0224 20005KT P6SM FEW070 SCT200
     FM021800 14006KT P6SM SCT050 SCT250=



000
FTUS44 KMOB 012320
TAFPNS
TAF
KPNS 012320Z 0200/0224 20007KT P6SM FEW080
     FM021800 18006KT P6SM SCT050 SCT250=



000
FTUS44 KMOB 011739
TAFMOB
TAF
KMOB 011739Z 0118/0218 00000KT P6SM FEW045 BKN250
     FM020900 VRB02KT P6SM SKC
     FM021500 34003KT P6SM SKC=



000
FTUS44 KMOB 011739
TAFMOB
TAF
KMOB 011739Z 0118/0218 00000KT P6SM FEW045 BKN250
     FM020900 VRB02KT P6SM SKC
     FM021500 34003KT P6SM SKC=



000
FTUS44 KMOB 011739
TAFPNS
TAF
KPNS 011739Z 0118/0218 VRB04KT P6SM SKC
     FM020900 VRB02KT P6SM SKC
     FM021200 35004KT P6SM SKC=



000
FTUS44 KMOB 011739
TAFMOB
TAF
KMOB 011739Z 0118/0218 00000KT P6SM FEW045 BKN250
     FM020900 VRB02KT P6SM SKC
     FM021500 34003KT P6SM SKC=



000
FTUS44 KMOB 011739
TAFPNS
TAF
KPNS 011739Z 0118/0218 VRB04KT P6SM SKC
     FM020900 VRB02KT P6SM SKC
     FM021200 35004KT P6SM SKC=



000
FTUS44 KMOB 011739
TAFPNS
TAF
KPNS 011739Z 0118/0218 VRB04KT P6SM SKC
     FM020900 VRB02KT P6SM SKC
     FM021200 35004KT P6SM SKC=



000
FTUS44 KMOB 011739
TAFMOB
TAF
KMOB 011739Z 0118/0218 00000KT P6SM FEW045 BKN250
     FM020900 VRB02KT P6SM SKC
     FM021500 34003KT P6SM SKC=



000
FTUS44 KMOB 011739
TAFPNS
TAF
KPNS 011739Z 0118/0218 VRB04KT P6SM SKC
     FM020900 VRB02KT P6SM SKC
     FM021200 35004KT P6SM SKC=



000
FTUS44 KMOB 011140
TAFMOB
TAF
KMOB 011140Z 0112/0212 00000KT P6SM FEW060
     FM011800 20005KT P6SM SCT050 SCT250
     FM020900 VRB02KT P6SM SKC=



000
FTUS44 KMOB 011140
TAFPNS
TAF
KPNS 011140Z 0112/0212 34005KT P6SM SKC
     FM011800 14007KT P6SM SCT040 SCT250
     FM020900 VRB02KT P6SM SKC=



000
FTUS44 KMOB 011140
TAFPNS
TAF
KPNS 011140Z 0112/0212 34005KT P6SM SKC
     FM011800 14007KT P6SM SCT040 SCT250
     FM020900 VRB02KT P6SM SKC=



000
FTUS44 KMOB 011140
TAFMOB
TAF
KMOB 011140Z 0112/0212 00000KT P6SM FEW060
     FM011800 20005KT P6SM SCT050 SCT250
     FM020900 VRB02KT P6SM SKC=



000
FTUS44 KMOB 011140
TAFMOB
TAF
KMOB 011140Z 0112/0212 00000KT P6SM FEW060
     FM011800 20005KT P6SM SCT050 SCT250
     FM020900 VRB02KT P6SM SKC=



000
FTUS44 KMOB 011140
TAFPNS
TAF
KPNS 011140Z 0112/0212 34005KT P6SM SKC
     FM011800 14007KT P6SM SCT040 SCT250
     FM020900 VRB02KT P6SM SKC=



000
FTUS44 KMOB 011140
TAFPNS
TAF
KPNS 011140Z 0112/0212 34005KT P6SM SKC
     FM011800 14007KT P6SM SCT040 SCT250
     FM020900 VRB02KT P6SM SKC=



000
FTUS44 KMOB 011140
TAFMOB
TAF
KMOB 011140Z 0112/0212 00000KT P6SM FEW060
     FM011800 20005KT P6SM SCT050 SCT250
     FM020900 VRB02KT P6SM SKC=



000
FTUS44 KMOB 010531
TAFPNS
TAF
KPNS 010531Z 0106/0206 31003KT P6SM SKC
     FM011800 14007KT P6SM SCT040 SCT250=



000
FTUS44 KMOB 010531
TAFMOB
TAF
KMOB 010531Z 0106/0206 00000KT P6SM SKC
     FM011800 20005KT P6SM SCT050 SCT250=



000
FTUS44 KMOB 010531
TAFPNS
TAF
KPNS 010531Z 0106/0206 31003KT P6SM SKC
     FM011800 14007KT P6SM SCT040 SCT250=



000
FTUS44 KMOB 010531
TAFMOB
TAF
KMOB 010531Z 0106/0206 00000KT P6SM SKC
     FM011800 20005KT P6SM SCT050 SCT250=



000
FTUS44 KMOB 312320
TAFPNS
TAF
KPNS 312320Z 0100/0124 19007KT P6SM FEW035
     FM011800 15007KT P6SM SCT040 SCT250=



000
FTUS44 KMOB 312320
TAFMOB
TAF
KMOB 312320Z 0100/0124 20006KT P6SM FEW060 SCT200
     FM011800 20005KT P6SM SCT050 SCT250=



000
FTUS44 KMOB 312320
TAFPNS
TAF
KPNS 312320Z 0100/0124 19007KT P6SM FEW035
     FM011800 15007KT P6SM SCT040 SCT250=



000
FTUS44 KMOB 312320
TAFMOB
TAF
KMOB 312320Z 0100/0124 20006KT P6SM FEW060 SCT200
     FM011800 20005KT P6SM SCT050 SCT250=



000
FTUS44 KMOB 311755
TAFPNS
TAF
KPNS 311755Z 3118/0118 05003KT P6SM SKC
     FM312100 19010KT P6SM FEW060 SCT250
     FM010300 VRB03KT P6SM SKC
     FM010900 35003KT P6SM SKC=



000
FTUS44 KMOB 311755
TAFMOB
TAF
KMOB 311755Z 3118/0118 VRB04KT P6SM FEW025 SCT200
     FM312100 22008KT P6SM SCT060 SCT250
     FM010300 VRB03KT P6SM SKC
     FM011200 32004KT P6SM SKC=



000
FTUS44 KMOB 311755
TAFPNS
TAF
KPNS 311755Z 3118/0118 05003KT P6SM SKC
     FM312100 19010KT P6SM FEW060 SCT250
     FM010300 VRB03KT P6SM SKC
     FM010900 35003KT P6SM SKC=



000
FTUS44 KMOB 311755
TAFMOB
TAF
KMOB 311755Z 3118/0118 VRB04KT P6SM FEW025 SCT200
     FM312100 22008KT P6SM SCT060 SCT250
     FM010300 VRB03KT P6SM SKC
     FM011200 32004KT P6SM SKC=



000
FTUS44 KMOB 311755
TAFPNS
TAF
KPNS 311755Z 3118/0118 05003KT P6SM SKC
     FM312100 19010KT P6SM FEW060 SCT250
     FM010300 VRB03KT P6SM SKC
     FM010900 35003KT P6SM SKC=



000
FTUS44 KMOB 311755
TAFMOB
TAF
KMOB 311755Z 3118/0118 VRB04KT P6SM FEW025 SCT200
     FM312100 22008KT P6SM SCT060 SCT250
     FM010300 VRB03KT P6SM SKC
     FM011200 32004KT P6SM SKC=



000
FTUS44 KMOB 311755
TAFMOB
TAF
KMOB 311755Z 3118/0118 VRB04KT P6SM FEW025 SCT200
     FM312100 22008KT P6SM SCT060 SCT250
     FM010300 VRB03KT P6SM SKC
     FM011200 32004KT P6SM SKC=



000
FTUS44 KMOB 311755
TAFPNS
TAF
KPNS 311755Z 3118/0118 05003KT P6SM SKC
     FM312100 19010KT P6SM FEW060 SCT250
     FM010300 VRB03KT P6SM SKC
     FM010900 35003KT P6SM SKC=



000
FTUS44 KMOB 311143
TAFMOB
TAF
KMOB 311143Z 3112/0112 31004KT P6SM FEW250
     FM312100 22008KT P6SM SCT060 SCT250
     FM010300 VRB03KT P6SM SKC=



000
FTUS44 KMOB 311143
TAFPNS
TAF
KPNS 311143Z 3112/0112 34006KT P6SM FEW250
     FM312100 19010KT P6SM FEW060 SCT250
     FM010300 VRB03KT P6SM SKC=



000
FTUS44 KMOB 311143
TAFMOB
TAF
KMOB 311143Z 3112/0112 31004KT P6SM FEW250
     FM312100 22008KT P6SM SCT060 SCT250
     FM010300 VRB03KT P6SM SKC=



000
FTUS44 KMOB 311143
TAFPNS
TAF
KPNS 311143Z 3112/0112 34006KT P6SM FEW250
     FM312100 19010KT P6SM FEW060 SCT250
     FM010300 VRB03KT P6SM SKC=



000
FTUS44 KMOB 311143
TAFMOB
TAF
KMOB 311143Z 3112/0112 31004KT P6SM FEW250
     FM312100 22008KT P6SM SCT060 SCT250
     FM010300 VRB03KT P6SM SKC=



000
FTUS44 KMOB 311143
TAFMOB
TAF
KMOB 311143Z 3112/0112 31004KT P6SM FEW250
     FM312100 22008KT P6SM SCT060 SCT250
     FM010300 VRB03KT P6SM SKC=



000
FTUS44 KMOB 311143
TAFPNS
TAF
KPNS 311143Z 3112/0112 34006KT P6SM FEW250
     FM312100 19010KT P6SM FEW060 SCT250
     FM010300 VRB03KT P6SM SKC=



000
FTUS44 KMOB 311143
TAFPNS
TAF
KPNS 311143Z 3112/0112 34006KT P6SM FEW250
     FM312100 19010KT P6SM FEW060 SCT250
     FM010300 VRB03KT P6SM SKC=



    US Dept of Commerce
    National Oceanic and Atmospheric Administration
    National Weather Service
    1325 East West Highway
    Silver Spring, MD 20910
    Page Author: NWS Internet Services Team
Disclaimer
Information Quality
Credits
Glossary
Privacy Policy
Freedom of Information Act (FOIA)
About Us
Career Opportunities